createdAt,value
2023-03-30T00:01:03.772Z,10.91
2023-03-30T00:03:31.387Z,10.81
2023-03-30T00:06:05.345Z,10.75
2023-03-30T00:08:33.443Z,10.76
2023-03-30T00:11:05.447Z,10.79
2023-03-30T00:13:34.542Z,10.80
2023-03-30T00:16:02.382Z,10.82
2023-03-30T00:18:31.844Z,10.82
2023-03-30T00:20:58.981Z,10.81
2023-03-30T00:23:26.950Z,10.85
2023-03-30T00:25:54.151Z,10.86
2023-03-30T00:28:20.933Z,10.88
2023-03-30T00:30:48.967Z,10.87
2023-03-30T00:33:16.174Z,10.84
2023-03-30T00:35:43.169Z,10.84
2023-03-30T00:38:09.998Z,10.82
2023-03-30T00:40:38.273Z,10.81
2023-03-30T00:43:11.294Z,10.80
2023-03-30T00:45:38.214Z,10.79
2023-03-30T00:48:12.608Z,10.79
2023-03-30T00:50:58.690Z,10.80
2023-03-30T00:53:37.705Z,10.80
2023-03-30T00:56:08.831Z,10.81
2023-03-30T00:58:38.844Z,10.83
2023-03-30T01:01:11.065Z,10.83
2023-03-30T01:03:45.619Z,10.91
2023-03-30T01:06:17.800Z,11.05
2023-03-30T01:08:45.644Z,11.15
2023-03-30T01:11:12.536Z,11.23
2023-03-30T01:13:45.507Z,11.31
2023-03-30T01:16:44.257Z,11.24
2023-03-30T01:20:09.089Z,11.06
2023-03-30T01:23:10.704Z,10.93
2023-03-30T01:26:02.014Z,10.89
2023-03-30T01:28:37.620Z,10.87
2023-03-30T01:32:14.737Z,10.92
2023-03-30T01:35:11.770Z,11.04
2023-03-30T01:38:29.351Z,11.09
2023-03-30T01:41:35.377Z,11.11
2023-03-30T01:44:25.165Z,11.15
2023-03-30T01:47:01.073Z,11.15
2023-03-30T01:49:31.709Z,11.16
2023-03-30T01:52:31.981Z,11.21
2023-03-30T01:55:10.145Z,11.22
2023-03-30T01:57:44.076Z,11.22
2023-03-30T02:00:17.799Z,11.23
2023-03-30T02:02:59.084Z,11.23
2023-03-30T02:05:28.990Z,11.21
2023-03-30T02:08:03.031Z,11.22
2023-03-30T02:10:34.687Z,11.52
2023-03-30T02:13:04.415Z,12.25
2023-03-30T02:15:40.148Z,12.84
2023-03-30T02:18:07.325Z,13.21
2023-03-30T02:20:36.259Z,13.65
2023-03-30T02:23:06.038Z,13.69
2023-03-30T02:25:38.313Z,13.81
2023-03-30T02:28:08.037Z,13.73
2023-03-30T02:30:39.956Z,13.58
2023-03-30T02:33:14.132Z,13.40
2023-03-30T02:36:09.815Z,13.31
2023-03-30T02:38:48.566Z,13.19
2023-03-30T02:41:34.070Z,13.13
2023-03-30T02:44:35.892Z,13.12
2023-03-30T02:47:28.455Z,13.06
2023-03-30T02:50:22.326Z,13.04
2023-03-30T02:53:27.260Z,13.07
2023-03-30T02:56:22.033Z,13.06
2023-03-30T02:59:10.271Z,13.05
2023-03-30T03:01:52.497Z,13.06
2023-03-30T03:04:23.160Z,12.98
2023-03-30T03:06:52.907Z,12.91
2023-03-30T03:09:20.722Z,12.94
2023-03-30T03:11:47.682Z,12.99
2023-03-30T03:14:14.537Z,13.13
2023-03-30T03:16:42.100Z,13.19
2023-03-30T03:19:09.601Z,13.19
2023-03-30T03:21:36.889Z,13.24
2023-03-30T03:24:05.338Z,13.25
2023-03-30T03:26:33.756Z,13.18
2023-03-30T03:29:00.473Z,13.21
2023-03-30T03:31:27.441Z,13.23
2023-03-30T03:33:54.317Z,13.17
2023-03-30T03:36:22.539Z,13.10
2023-03-30T03:38:49.341Z,12.99
2023-03-30T03:41:16.382Z,12.88
2023-03-30T03:43:43.460Z,12.78
2023-03-30T03:46:11.055Z,12.70
2023-03-30T03:48:39.965Z,12.64
2023-03-30T03:51:07.780Z,12.62
2023-03-30T03:53:34.664Z,12.54
2023-03-30T03:56:02.314Z,12.43
2023-03-30T03:58:29.953Z,12.34
2023-03-30T04:01:01.564Z,12.23
2023-03-30T04:03:29.823Z,12.21
2023-03-30T04:06:02.292Z,12.27
2023-03-30T04:08:29.446Z,12.28
2023-03-30T04:10:56.551Z,12.29
2023-03-30T04:13:23.355Z,12.32
2023-03-30T04:15:50.363Z,12.42
2023-03-30T04:18:17.227Z,12.49
2023-03-30T04:20:44.051Z,12.57
2023-03-30T04:23:16.229Z,12.62
2023-03-30T04:25:43.467Z,12.63
2023-03-30T04:28:11.715Z,12.65
2023-03-30T04:30:38.905Z,12.64
2023-03-30T04:33:05.781Z,12.69
2023-03-30T04:35:34.186Z,12.72
2023-03-30T04:38:02.474Z,12.78
2023-03-30T04:40:30.100Z,12.80
2023-03-30T04:43:02.553Z,12.82
2023-03-30T04:45:31.091Z,12.85
2023-03-30T04:47:58.067Z,12.86
2023-03-30T04:50:25.141Z,12.91
2023-03-30T04:52:52.010Z,12.86
2023-03-30T04:55:18.760Z,12.89
2023-03-30T04:57:46.597Z,12.96
2023-03-30T05:00:14.082Z,12.93
2023-03-30T05:02:41.262Z,12.91
2023-03-30T05:05:08.803Z,12.96
2023-03-30T05:07:35.897Z,12.95
2023-03-30T05:10:02.844Z,12.96
2023-03-30T05:12:29.757Z,12.97
2023-03-30T05:14:56.511Z,13.01
2023-03-30T05:17:23.439Z,13.02
2023-03-30T05:19:50.298Z,13.06
2023-03-30T05:22:17.140Z,13.06
2023-03-30T05:24:43.929Z,13.02
2023-03-30T05:27:11.217Z,13.05
2023-03-30T05:29:38.039Z,13.07
2023-03-30T05:32:05.040Z,13.10
2023-03-30T05:34:31.868Z,13.08
2023-03-30T05:36:58.633Z,13.07
2023-03-30T05:39:25.379Z,13.09
2023-03-30T05:41:52.867Z,13.14
2023-03-30T05:44:22.335Z,13.11
2023-03-30T05:46:49.507Z,13.06
2023-03-30T05:49:16.559Z,13.00
2023-03-30T05:51:43.385Z,12.96
2023-03-30T05:54:14.593Z,13.01
2023-03-30T05:56:42.410Z,13.01
2023-03-30T05:59:10.454Z,13.01
2023-03-30T06:01:37.732Z,12.96
2023-03-30T06:04:05.315Z,12.93
2023-03-30T06:06:32.486Z,12.89
2023-03-30T06:08:59.653Z,12.83
2023-03-30T06:11:26.454Z,12.81
2023-03-30T06:13:53.369Z,12.76
2023-03-30T06:16:20.926Z,12.72
2023-03-30T06:18:47.981Z,12.68
2023-03-30T06:21:14.840Z,12.67
2023-03-30T06:23:42.529Z,12.66
2023-03-30T06:26:09.928Z,12.60
2023-03-30T06:28:36.737Z,12.57
2023-03-30T06:31:09.633Z,12.53
2023-03-30T06:33:38.308Z,12.51
2023-03-30T06:36:12.597Z,12.47
2023-03-30T06:38:39.703Z,12.47
2023-03-30T06:41:09.826Z,12.47
2023-03-30T06:43:37.853Z,12.46
2023-03-30T06:46:05.961Z,12.45
2023-03-30T06:48:32.992Z,12.46
2023-03-30T06:50:59.833Z,12.44
2023-03-30T06:53:26.701Z,12.44
2023-03-30T06:55:56.983Z,12.41
2023-03-30T06:58:25.669Z,12.38
2023-03-30T07:00:53.183Z,12.31
2023-03-30T07:03:20.459Z,12.29
2023-03-30T07:05:52.454Z,12.27
2023-03-30T07:08:20.259Z,12.31
2023-03-30T07:10:48.842Z,12.31
2023-03-30T07:13:17.504Z,12.26
2023-03-30T07:15:45.794Z,12.25
2023-03-30T07:18:13.730Z,12.23
2023-03-30T07:20:40.746Z,12.17
2023-03-30T07:23:07.847Z,12.14
2023-03-30T07:25:34.716Z,12.14
2023-03-30T07:28:02.106Z,12.13
2023-03-30T07:30:29.250Z,12.18
2023-03-30T07:32:58.373Z,12.19
2023-03-30T07:35:26.185Z,12.22
2023-03-30T07:38:02.294Z,12.25
2023-03-30T07:40:30.056Z,12.26
2023-03-30T07:42:56.965Z,12.27
2023-03-30T07:45:23.781Z,12.29
2023-03-30T07:47:50.736Z,12.27
2023-03-30T07:50:17.786Z,12.28
2023-03-30T07:52:44.597Z,12.28
2023-03-30T07:55:11.428Z,12.29
2023-03-30T07:57:38.425Z,12.32
2023-03-30T08:00:08.093Z,12.33
2023-03-30T08:02:35.888Z,12.31
2023-03-30T08:05:03.488Z,12.28
2023-03-30T08:07:30.300Z,12.26
2023-03-30T08:09:57.350Z,12.23
2023-03-30T08:12:24.221Z,12.19
2023-03-30T08:14:51.707Z,12.14
2023-03-30T08:17:19.315Z,12.10
2023-03-30T08:19:46.205Z,12.08
2023-03-30T08:22:12.919Z,12.05
2023-03-30T08:24:39.727Z,12.04
2023-03-30T08:27:07.116Z,12.06
2023-03-30T08:29:34.050Z,12.05
2023-03-30T08:32:01.044Z,12.08
2023-03-30T08:34:29.105Z,12.12
2023-03-30T08:36:57.963Z,12.19
2023-03-30T08:39:25.027Z,12.26
2023-03-30T08:42:36.332Z,12.30
2023-03-30T08:45:07.675Z,12.35
2023-03-30T08:47:41.878Z,12.40
2023-03-30T08:50:19.114Z,12.44
2023-03-30T08:52:46.952Z,12.51
2023-03-30T08:55:31.893Z,12.62
2023-03-30T08:58:19.161Z,12.78
2023-03-30T09:01:30.046Z,12.98
2023-03-30T09:04:17.994Z,13.19
2023-03-30T09:07:03.690Z,13.52
2023-03-30T09:09:41.559Z,13.57
2023-03-30T09:12:48.445Z,13.54
2023-03-30T09:15:35.956Z,13.52
2023-03-30T09:18:25.880Z,13.51
2023-03-30T09:20:57.247Z,13.44
2023-03-30T09:23:25.431Z,13.40
2023-03-30T09:26:02.735Z,13.40
2023-03-30T09:29:19.935Z,13.40
2023-03-30T09:32:32.205Z,13.49
2023-03-30T09:35:21.602Z,13.54
2023-03-30T09:37:48.616Z,13.49
2023-03-30T09:41:11.401Z,13.45
2023-03-30T09:43:46.135Z,13.43
2023-03-30T09:46:15.727Z,13.41
2023-03-30T09:48:51.282Z,13.41
2023-03-30T09:51:29.832Z,13.37
2023-03-30T09:54:06.254Z,13.29
2023-03-30T09:56:51.378Z,13.32
2023-03-30T09:59:37.610Z,13.48
2023-03-30T10:02:13.873Z,13.54
2023-03-30T10:04:53.000Z,13.56
2023-03-30T10:07:33.884Z,13.57
2023-03-30T10:10:25.661Z,13.72
2023-03-30T10:13:13.439Z,13.91
2023-03-30T10:15:44.305Z,14.12
2023-03-30T10:18:34.325Z,14.47
2023-03-30T10:21:19.473Z,14.72
2023-03-30T10:24:01.174Z,14.89
2023-03-30T10:26:30.643Z,15.11
2023-03-30T10:29:05.555Z,14.93
2023-03-30T10:31:37.038Z,14.92
2023-03-30T10:34:15.014Z,15.03
2023-03-30T10:36:42.124Z,15.16
2023-03-30T10:39:16.681Z,15.20
2023-03-30T10:41:44.360Z,15.12
2023-03-30T10:44:20.438Z,15.14
2023-03-30T10:46:51.675Z,15.23
2023-03-30T10:49:59.583Z,15.49
2023-03-30T10:52:58.389Z,15.53
2023-03-30T10:55:53.157Z,15.49
2023-03-30T10:58:40.016Z,15.55
2023-03-30T11:01:43.117Z,15.67
2023-03-30T11:04:37.515Z,15.74
2023-03-30T11:07:16.871Z,16.19
2023-03-30T11:09:53.435Z,16.47
2023-03-30T11:12:38.423Z,16.37
2023-03-30T11:15:29.302Z,16.27
2023-03-30T11:18:14.127Z,16.33
2023-03-30T11:20:51.346Z,16.21
2023-03-30T11:23:36.697Z,16.01
2023-03-30T11:26:18.181Z,15.67
2023-03-30T11:29:31.571Z,15.48
2023-03-30T11:32:25.946Z,15.62
2023-03-30T11:35:07.195Z,16.37
2023-03-30T11:38:12.989Z,16.45
2023-03-30T11:41:10.031Z,16.44
2023-03-30T11:43:37.378Z,17.66
2023-03-30T11:46:22.090Z,18.19
2023-03-30T11:49:20.046Z,19.16
2023-03-30T11:52:08.877Z,20.26
2023-03-30T11:55:04.479Z,20.45
2023-03-30T11:58:10.440Z,19.67
2023-03-30T12:01:17.097Z,20.16
2023-03-30T12:03:52.680Z,19.99
2023-03-30T12:06:31.093Z,19.57
2023-03-30T12:09:19.212Z,19.97
2023-03-30T12:12:13.755Z,20.47
2023-03-30T12:15:22.206Z,19.10
2023-03-30T12:18:06.672Z,19.69
2023-03-30T12:21:03.664Z,20.59
2023-03-30T12:24:16.606Z,21.89
2023-03-30T12:26:58.165Z,21.26
2023-03-30T12:32:29.380Z,19.97
2023-03-30T12:34:57.979Z,19.92
2023-03-30T12:37:34.759Z,21.01
2023-03-30T12:40:22.167Z,21.74
2023-03-30T12:43:22.738Z,22.80
2023-03-30T12:46:29.648Z,23.64
2023-03-30T12:49:41.680Z,23.92
2023-03-30T12:52:39.701Z,24.11
2023-03-30T12:55:32.144Z,23.90
2023-03-30T12:58:43.926Z,23.96
2023-03-30T13:01:57.493Z,23.84
2023-03-30T13:04:33.285Z,24.01
2023-03-30T13:07:08.306Z,23.66
2023-03-30T13:09:59.876Z,24.06
2023-03-30T13:12:41.840Z,23.94
2023-03-30T13:15:29.821Z,23.80
2023-03-30T13:18:03.059Z,24.38
2023-03-30T13:20:37.412Z,24.78
2023-03-30T13:23:09.989Z,25.29
2023-03-30T13:26:03.639Z,24.68
2023-03-30T13:28:54.681Z,24.99
2023-03-30T13:32:23.416Z,24.75
2023-03-30T13:35:29.703Z,24.59
2023-03-30T13:38:36.167Z,22.68
2023-03-30T13:41:20.799Z,21.86
2023-03-30T13:44:37.546Z,22.66
2023-03-30T13:47:35.419Z,23.39
2023-03-30T13:50:18.727Z,22.82
2023-03-30T13:52:48.914Z,22.62
2023-03-30T13:55:42.236Z,22.80
2023-03-30T13:58:19.799Z,22.40
2023-03-30T14:00:57.082Z,21.27
2023-03-30T14:03:28.189Z,20.53
2023-03-30T14:06:05.738Z,19.90
2023-03-30T14:08:37.436Z,19.26
2023-03-30T14:11:15.625Z,18.77
2023-03-30T14:13:46.046Z,18.36
2023-03-30T14:16:31.633Z,17.96
2023-03-30T14:19:15.797Z,17.33
2023-03-30T14:21:47.687Z,16.78
2023-03-30T14:24:27.144Z,16.32
2023-03-30T14:27:12.594Z,16.10
2023-03-30T14:29:49.372Z,16.79
2023-03-30T14:32:21.153Z,17.88
2023-03-30T14:34:53.695Z,18.40
2023-03-30T14:37:25.478Z,18.51
2023-03-30T14:39:57.356Z,18.27
2023-03-30T14:42:30.955Z,18.52
2023-03-30T14:44:58.382Z,19.25
2023-03-30T14:47:27.777Z,18.31
2023-03-30T14:50:00.071Z,17.48
2023-03-30T14:52:42.571Z,17.54
2023-03-30T14:55:33.740Z,18.38
2023-03-30T14:58:01.540Z,18.75
2023-03-30T15:00:31.179Z,18.42
2023-03-30T15:03:01.176Z,17.99
2023-03-30T15:05:41.468Z,17.65
2023-03-30T15:08:30.459Z,17.56
2023-03-30T15:11:04.766Z,17.49
2023-03-30T15:13:41.681Z,17.35
2023-03-30T15:16:15.918Z,17.35
2023-03-30T15:18:42.909Z,17.39
2023-03-30T15:21:13.550Z,17.08
2023-03-30T15:23:44.768Z,16.87
2023-03-30T15:26:13.169Z,16.79
2023-03-30T15:28:53.537Z,16.73
2023-03-30T15:31:21.061Z,16.56
2023-03-30T15:34:00.864Z,16.37
2023-03-30T15:36:33.718Z,16.32
2023-03-30T15:39:00.877Z,16.18
2023-03-30T15:41:50.028Z,16.15
2023-03-30T15:44:21.562Z,16.04
2023-03-30T15:46:56.764Z,15.97
2023-03-30T15:49:35.253Z,15.84
2023-03-30T15:52:11.142Z,15.84
2023-03-30T15:54:44.789Z,15.94
2023-03-30T15:57:13.055Z,15.83
2023-03-30T15:59:53.078Z,15.81
2023-03-30T16:02:41.167Z,15.87
2023-03-30T16:05:20.853Z,15.97
2023-03-30T16:07:48.182Z,15.99
2023-03-30T16:10:20.684Z,15.99
2023-03-30T16:12:48.559Z,15.97
2023-03-30T16:15:19.860Z,15.81
2023-03-30T16:17:47.366Z,15.81
2023-03-30T16:20:21.239Z,15.77
2023-03-30T16:22:49.243Z,15.67
2023-03-30T16:25:18.986Z,15.62
2023-03-30T16:27:46.377Z,15.51
2023-03-30T16:30:18.870Z,15.46
2023-03-30T16:32:46.185Z,15.46
2023-03-30T16:35:13.400Z,15.44
2023-03-30T16:37:40.735Z,15.35
2023-03-30T16:40:42.235Z,15.23
2023-03-30T16:43:10.047Z,15.13
2023-03-30T16:45:36.986Z,15.10
2023-03-30T16:48:04.519Z,15.09
2023-03-30T16:50:43.312Z,15.08
2023-03-30T16:53:11.876Z,15.05
2023-03-30T16:55:40.608Z,15.01
2023-03-30T16:58:09.789Z,14.98
2023-03-30T17:00:43.667Z,14.91
2023-03-30T17:03:10.859Z,14.89
2023-03-30T17:05:39.042Z,14.88
2023-03-30T17:08:16.020Z,14.79
2023-03-30T17:10:42.942Z,14.75
2023-03-30T17:13:09.825Z,14.68
2023-03-30T17:15:38.927Z,14.69
2023-03-30T17:18:12.523Z,14.60
2023-03-30T17:20:49.458Z,14.59
2023-03-30T17:23:20.558Z,14.57
2023-03-30T17:25:49.334Z,14.60
2023-03-30T17:28:26.938Z,14.56
2023-03-30T17:30:58.133Z,14.51
2023-03-30T17:33:26.476Z,14.52
2023-03-30T17:36:00.552Z,14.49
2023-03-30T17:38:29.769Z,14.44
2023-03-30T17:40:57.322Z,14.41
2023-03-30T17:43:26.588Z,14.37
2023-03-30T17:45:53.473Z,14.38
2023-03-30T17:48:22.213Z,14.35
2023-03-30T17:50:51.092Z,14.23
2023-03-30T17:53:20.899Z,14.21
2023-03-30T17:55:52.322Z,14.27
2023-03-30T17:58:32.047Z,14.18
2023-03-30T18:01:01.634Z,14.20
2023-03-30T18:03:31.608Z,14.20
2023-03-30T18:06:00.699Z,14.23
2023-03-30T18:08:28.680Z,14.21
2023-03-30T18:10:59.277Z,14.26
2023-03-30T18:13:28.629Z,14.23
2023-03-30T18:15:58.457Z,14.15
2023-03-30T18:18:29.478Z,14.11
2023-03-30T18:21:03.323Z,14.13
2023-03-30T18:23:33.929Z,14.07
2023-03-30T18:26:01.834Z,14.04
2023-03-30T18:28:31.271Z,13.99
2023-03-30T18:31:00.450Z,13.95
2023-03-30T18:33:27.373Z,13.91
2023-03-30T18:35:56.853Z,13.85
2023-03-30T18:38:25.589Z,13.91
2023-03-30T18:40:57.399Z,13.93
2023-03-30T18:43:26.653Z,13.86
2023-03-30T18:45:58.510Z,13.85
2023-03-30T18:48:27.813Z,13.87
2023-03-30T18:50:55.958Z,13.85
2023-03-30T18:53:26.726Z,13.83
2023-03-30T18:55:57.982Z,13.81
2023-03-30T18:58:30.535Z,13.80
2023-03-30T19:00:57.453Z,13.81
2023-03-30T19:03:27.233Z,13.80
2023-03-30T19:05:54.643Z,13.80
2023-03-30T19:08:25.858Z,13.80
2023-03-30T19:10:57.609Z,13.79
2023-03-30T19:13:26.484Z,13.75
2023-03-30T19:15:54.588Z,13.73
2023-03-30T19:18:22.281Z,13.72
2023-03-30T19:20:51.199Z,13.73
2023-03-30T19:23:21.739Z,13.73
2023-03-30T19:25:48.924Z,13.69
2023-03-30T19:28:16.466Z,13.64
2023-03-30T19:30:44.586Z,13.55
2023-03-30T19:33:16.635Z,13.45
2023-03-30T19:35:45.745Z,13.35
2023-03-30T19:38:14.585Z,13.29
2023-03-30T19:40:41.606Z,13.16
2023-03-30T19:43:09.935Z,13.07
2023-03-30T19:45:37.294Z,13.05
2023-03-30T19:48:04.547Z,12.99
2023-03-30T19:50:31.673Z,12.85
2023-03-30T19:52:59.312Z,12.84
2023-03-30T19:55:27.378Z,12.82
2023-03-30T19:57:54.604Z,12.73
2023-03-30T20:00:21.600Z,12.72
2023-03-30T20:02:52.702Z,12.79
2023-03-30T20:05:22.715Z,12.64
2023-03-30T20:07:50.877Z,12.54
2023-03-30T20:10:22.354Z,12.47
2023-03-30T20:12:50.480Z,12.40
2023-03-30T20:15:20.227Z,12.39
2023-03-30T20:17:47.164Z,12.36
2023-03-30T20:20:22.572Z,12.33
2023-03-30T20:22:54.105Z,12.34
2023-03-30T20:25:22.431Z,12.32
2023-03-30T20:27:52.620Z,12.33
2023-03-30T20:30:21.046Z,12.29
2023-03-30T20:33:03.682Z,12.19
2023-03-30T20:35:31.987Z,12.16
2023-03-30T20:37:59.344Z,12.10
2023-03-30T20:40:27.330Z,12.09
2023-03-30T20:42:54.113Z,12.12
2023-03-30T20:45:25.988Z,12.16
2023-03-30T20:47:53.807Z,12.12
2023-03-30T20:50:21.108Z,12.16
2023-03-30T20:52:48.972Z,12.14
2023-03-30T20:55:16.918Z,12.07
2023-03-30T20:57:43.736Z,12.06
2023-03-30T21:00:12.417Z,12.08
2023-03-30T21:02:39.278Z,12.05
2023-03-30T21:05:06.567Z,11.98
2023-03-30T21:07:33.790Z,11.97
2023-03-30T21:10:00.748Z,12.04
2023-03-30T21:12:28.814Z,12.09
2023-03-30T21:14:55.902Z,12.06
2023-03-30T21:17:22.895Z,12.04
2023-03-30T21:19:49.776Z,12.05
2023-03-30T21:22:18.804Z,12.02
2023-03-30T21:24:45.988Z,12.01
2023-03-30T21:27:14.425Z,11.98
2023-03-30T21:29:41.534Z,11.94
2023-03-30T21:32:10.561Z,11.92
2023-03-30T21:34:37.333Z,11.92
2023-03-30T21:37:04.225Z,11.99
2023-03-30T21:39:31.126Z,11.99
2023-03-30T21:41:58.483Z,11.98
2023-03-30T21:44:26.194Z,11.98
2023-03-30T21:46:53.355Z,11.96
2023-03-30T21:49:20.239Z,11.95
2023-03-30T21:51:47.095Z,11.95
2023-03-30T21:54:14.033Z,11.93
2023-03-30T21:56:41.007Z,11.96
2023-03-30T21:59:07.830Z,12.01
2023-03-30T22:01:35.382Z,12.00
2023-03-30T22:04:05.404Z,11.97
2023-03-30T22:06:33.689Z,11.97
2023-03-30T22:09:00.631Z,12.01
2023-03-30T22:11:27.470Z,11.98
2023-03-30T22:13:55.476Z,11.92
2023-03-30T22:16:35.139Z,11.85
2023-03-30T22:19:04.139Z,11.86
2023-03-30T22:21:37.323Z,11.87
2023-03-30T22:24:07.452Z,11.87
2023-03-30T22:26:35.456Z,11.94
2023-03-30T22:29:02.437Z,11.93
2023-03-30T22:31:29.389Z,11.87
2023-03-30T22:33:56.763Z,11.80
2023-03-30T22:36:32.047Z,11.68
2023-03-30T22:39:02.503Z,11.63
2023-03-30T22:41:30.053Z,11.61
2023-03-30T22:43:58.614Z,11.64
2023-03-30T22:46:27.483Z,11.66
2023-03-30T22:48:57.859Z,11.65
2023-03-30T22:51:26.584Z,11.64
2023-03-30T22:54:00.705Z,11.64
2023-03-30T22:56:29.385Z,11.67
2023-03-30T22:58:57.489Z,11.70
2023-03-30T23:01:24.541Z,11.72
2023-03-30T23:03:52.993Z,11.67
2023-03-30T23:06:20.229Z,11.62
2023-03-30T23:08:48.608Z,11.61
2023-03-30T23:11:16.035Z,11.62
2023-03-30T23:13:42.975Z,11.65
2023-03-30T23:16:10.553Z,11.73
2023-03-30T23:18:38.732Z,11.73
2023-03-30T23:21:08.071Z,11.64
2023-03-30T23:23:38.979Z,11.54
2023-03-30T23:26:10.074Z,11.50
2023-03-30T23:28:41.331Z,11.52
2023-03-30T23:31:16.726Z,11.55
2023-03-30T23:33:46.472Z,11.61
2023-03-30T23:36:14.293Z,11.67
2023-03-30T23:38:41.993Z,11.71
2023-03-30T23:41:08.914Z,11.70
2023-03-30T23:43:36.156Z,11.60
2023-03-30T23:46:03.525Z,11.55
2023-03-30T23:48:30.747Z,11.55
2023-03-30T23:50:58.520Z,11.51
2023-03-30T23:53:26.286Z,11.51
2023-03-30T23:55:53.959Z,11.49
2023-03-30T23:58:24.012Z,11.50
